sensor_id;sensor_type;location;lat;lon;timestamp;temperature;humidity
15625;DHT22;7912;51.376;6.126;2023-06-22T00:03:17;24.00;91.40
15625;DHT22;7912;51.376;6.126;2023-06-22T00:32:11;23.90;93.00
15625;DHT22;7912;51.376;6.126;2023-06-22T00:35:24;23.80;93.30
15625;DHT22;7912;51.376;6.126;2023-06-22T00:39:17;23.80;93.60
15625;DHT22;7912;51.376;6.126;2023-06-22T00:42:42;23.80;94.40
15625;DHT22;7912;51.376;6.126;2023-06-22T00:45:35;23.70;94.90
15625;DHT22;7912;51.376;6.126;2023-06-22T00:48:06;23.70;94.80
15625;DHT22;7912;51.376;6.126;2023-06-22T00:50:51;23.70;95.00
15625;DHT22;7912;51.376;6.126;2023-06-22T01:16:57;23.70;97.50
15625;DHT22;7912;51.376;6.126;2023-06-22T01:19:58;23.70;97.80
15625;DHT22;7912;51.376;6.126;2023-06-22T01:23:54;23.70;98.30
15625;DHT22;7912;51.376;6.126;2023-06-22T01:42:53;23.70;99.10
15625;DHT22;7912;51.376;6.126;2023-06-22T01:45:28;23.60;99.30
15625;DHT22;7912;51.376;6.126;2023-06-22T01:52:48;23.60;99.90
15625;DHT22;7912;51.376;6.126;2023-06-22T01:56:17;23.60;99.90
15625;DHT22;7912;51.376;6.126;2023-06-22T02:06:52;23.50;99.90
15625;DHT22;7912;51.376;6.126;2023-06-22T02:10:46;23.50;99.90
15625;DHT22;7912;51.376;6.126;2023-06-22T02:13:49;23.40;99.90
15625;DHT22;7912;51.376;6.126;2023-06-22T02:16:50;23.40;99.90
15625;DHT22;7912;51.376;6.126;2023-06-22T02:28:48;23.30;99.90
15625;DHT22;7912;51.376;6.126;2023-06-22T02:31:59;23.20;99.90
15625;DHT22;7912;51.376;6.126;2023-06-22T02:34:41;23.20;99.90
15625;DHT22;7912;51.376;6.126;2023-06-22T02:46:02;23.20;99.90
15625;DHT22;7912;51.376;6.126;2023-06-22T02:51:48;23.10;99.90
15625;DHT22;7912;51.376;6.126;2023-06-22T02:54:30;23.20;99.90
15625;DHT22;7912;51.376;6.126;2023-06-22T02:57:24;23.20;99.90
15625;DHT22;7912;51.376;6.126;2023-06-22T03:00:07;23.20;99.90
15625;DHT22;7912;51.376;6.126;2023-06-22T03:02:51;23.20;99.90
15625;DHT22;7912;51.376;6.126;2023-06-22T03:05:34;23.20;99.90
15625;DHT22;7912;51.376;6.126;2023-06-22T03:09:21;23.10;99.90
15625;DHT22;7912;51.376;6.126;2023-06-22T03:13:08;23.10;99.90
15625;DHT22;7912;51.376;6.126;2023-06-22T03:16:15;23.10;99.90
15625;DHT22;7912;51.376;6.126;2023-06-22T03:18:46;23.00;99.90
15625;DHT22;7912;51.376;6.126;2023-06-22T03:21:53;23.00;99.90
15625;DHT22;7912;51.376;6.126;2023-06-22T03:25:08;23.00;99.90
15625;DHT22;7912;51.376;6.126;2023-06-22T03:28:16;22.90;99.90
15625;DHT22;7912;51.376;6.126;2023-06-22T03:31:39;22.90;99.90
15625;DHT22;7912;51.376;6.126;2023-06-22T03:38:48;22.80;99.90
15625;DHT22;7912;51.376;6.126;2023-06-22T03:41:17;22.80;99.90
15625;DHT22;7912;51.376;6.126;2023-06-22T03:44:38;22.80;99.90
15625;DHT22;7912;51.376;6.126;2023-06-22T03:47:35;22.70;99.90
15625;DHT22;7912;51.376;6.126;2023-06-22T03:50:22;22.70;99.90
15625;DHT22;7912;51.376;6.126;2023-06-22T03:52:55;22.70;99.90
15625;DHT22;7912;51.376;6.126;2023-06-22T03:56:08;22.60;99.90
15625;DHT22;7912;51.376;6.126;2023-06-22T03:59:16;22.70;99.90
15625;DHT22;7912;51.376;6.126;2023-06-22T04:02:18;22.60;99.90
15625;DHT22;7912;51.376;6.126;2023-06-22T04:09:07;22.60;99.90
15625;DHT22;7912;51.376;6.126;2023-06-22T04:12:04;22.60;99.90
15625;DHT22;7912;51.376;6.126;2023-06-22T04:14:35;22.60;99.90
15625;DHT22;7912;51.376;6.126;2023-06-22T04:17:26;22.60;99.90
15625;DHT22;7912;51.376;6.126;2023-06-22T04:21:06;22.60;99.90
15625;DHT22;7912;51.376;6.126;2023-06-22T04:24:16;22.60;99.90
15625;DHT22;7912;51.376;6.126;2023-06-22T04:27:50;22.60;99.90
15625;DHT22;7912;51.376;6.126;2023-06-22T04:43:10;22.60;99.90
15625;DHT22;7912;51.376;6.126;2023-06-22T05:14:39;23.00;99.90
15625;DHT22;7912;51.376;6.126;2023-06-22T05:25:42;23.20;99.90
15625;DHT22;7912;51.376;6.126;2023-06-22T05:28:10;23.20;99.90
15625;DHT22;7912;51.376;6.126;2023-06-22T05:30:38;23.30;99.90
15625;DHT22;7912;51.376;6.126;2023-06-22T06:05:55;23.70;99.90
15625;DHT22;7912;51.376;6.126;2023-06-22T06:08:22;23.70;99.90
15625;DHT22;7912;51.376;6.126;2023-06-22T06:10:50;23.70;99.90
15625;DHT22;7912;51.376;6.126;2023-06-22T06:13:19;23.70;99.90
15625;DHT22;7912;51.376;6.126;2023-06-22T06:15:46;23.70;99.90
15625;DHT22;7912;51.376;6.126;2023-06-22T06:18:14;23.70;99.90
15625;DHT22;7912;51.376;6.126;2023-06-22T06:20:42;23.80;99.90
15625;DHT22;7912;51.376;6.126;2023-06-22T06:23:09;23.80;99.90
15625;DHT22;7912;51.376;6.126;2023-06-22T06:25:36;23.80;99.90
15625;DHT22;7912;51.376;6.126;2023-06-22T06:28:04;23.80;99.90
15625;DHT22;7912;51.376;6.126;2023-06-22T06:30:31;23.80;99.90
15625;DHT22;7912;51.376;6.126;2023-06-22T06:36:05;23.90;99.90
15625;DHT22;7912;51.376;6.126;2023-06-22T06:38:35;23.90;99.90
15625;DHT22;7912;51.376;6.126;2023-06-22T06:41:02;23.90;99.90
15625;DHT22;7912;51.376;6.126;2023-06-22T06:43:29;23.90;99.90
15625;DHT22;7912;51.376;6.126;2023-06-22T06:45:57;23.90;99.90
15625;DHT22;7912;51.376;6.126;2023-06-22T06:48:24;23.90;99.90
15625;DHT22;7912;51.376;6.126;2023-06-22T06:50:51;24.00;99.90
15625;DHT22;7912;51.376;6.126;2023-06-22T06:53:19;24.00;99.90
15625;DHT22;7912;51.376;6.126;2023-06-22T06:55:49;24.00;99.90
15625;DHT22;7912;51.376;6.126;2023-06-22T06:58:16;24.00;99.90
15625;DHT22;7912;51.376;6.126;2023-06-22T07:00:43;24.00;99.90
15625;DHT22;7912;51.376;6.126;2023-06-22T07:03:11;24.10;99.90
15625;DHT22;7912;51.376;6.126;2023-06-22T07:05:39;24.10;99.90
15625;DHT22;7912;51.376;6.126;2023-06-22T07:08:06;24.10;99.90
15625;DHT22;7912;51.376;6.126;2023-06-22T07:10:34;24.20;99.90
15625;DHT22;7912;51.376;6.126;2023-06-22T07:13:01;24.20;99.90
15625;DHT22;7912;51.376;6.126;2023-06-22T07:15:28;24.20;99.90
15625;DHT22;7912;51.376;6.126;2023-06-22T07:17:58;24.20;99.90
15625;DHT22;7912;51.376;6.126;2023-06-22T07:20:26;24.30;99.90
15625;DHT22;7912;51.376;6.126;2023-06-22T07:22:53;24.40;99.90
15625;DHT22;7912;51.376;6.126;2023-06-22T07:25:21;24.50;99.90
15625;DHT22;7912;51.376;6.126;2023-06-22T07:28:06;24.50;99.90
15625;DHT22;7912;51.376;6.126;2023-06-22T07:30:34;24.60;99.90
15625;DHT22;7912;51.376;6.126;2023-06-22T07:33:05;24.80;99.90
15625;DHT22;7912;51.376;6.126;2023-06-22T07:35:35;24.80;99.90
15625;DHT22;7912;51.376;6.126;2023-06-22T07:38:04;24.90;99.90
15625;DHT22;7912;51.376;6.126;2023-06-22T07:40:32;25.00;99.90
15625;DHT22;7912;51.376;6.126;2023-06-22T07:43:03;25.10;99.90
15625;DHT22;7912;51.376;6.126;2023-06-22T07:45:30;25.20;99.90
15625;DHT22;7912;51.376;6.126;2023-06-22T07:48:00;25.20;99.90
15625;DHT22;7912;51.376;6.126;2023-06-22T07:50:28;25.30;99.90
15625;DHT22;7912;51.376;6.126;2023-06-22T07:52:56;25.40;99.90
15625;DHT22;7912;51.376;6.126;2023-06-22T07:55:24;25.50;99.90
15625;DHT22;7912;51.376;6.126;2023-06-22T07:57:51;25.60;99.90
15625;DHT22;7912;51.376;6.126;2023-06-22T08:00:19;25.70;99.90
15625;DHT22;7912;51.376;6.126;2023-06-22T08:02:51;25.70;99.90
15625;DHT22;7912;51.376;6.126;2023-06-22T08:05:19;25.80;99.90
15625;DHT22;7912;51.376;6.126;2023-06-22T08:07:49;25.80;99.90
15625;DHT22;7912;51.376;6.126;2023-06-22T08:10:18;25.90;99.90
15625;DHT22;7912;51.376;6.126;2023-06-22T08:12:47;25.90;99.90
15625;DHT22;7912;51.376;6.126;2023-06-22T08:15:15;26.00;99.90
15625;DHT22;7912;51.376;6.126;2023-06-22T08:17:43;26.00;99.90
15625;DHT22;7912;51.376;6.126;2023-06-22T08:20:12;26.00;99.90
15625;DHT22;7912;51.376;6.126;2023-06-22T08:22:43;26.00;99.90
15625;DHT22;7912;51.376;6.126;2023-06-22T08:25:11;26.00;99.90
15625;DHT22;7912;51.376;6.126;2023-06-22T08:27:40;26.10;99.90
15625;DHT22;7912;51.376;6.126;2023-06-22T08:30:09;26.10;99.90
15625;DHT22;7912;51.376;6.126;2023-06-22T08:32:38;26.20;99.90
15625;DHT22;7912;51.376;6.126;2023-06-22T08:35:05;26.30;99.90
15625;DHT22;7912;51.376;6.126;2023-06-22T08:37:36;26.40;99.90
15625;DHT22;7912;51.376;6.126;2023-06-22T08:40:08;26.50;99.90
15625;DHT22;7912;51.376;6.126;2023-06-22T08:42:37;26.50;99.90
15625;DHT22;7912;51.376;6.126;2023-06-22T08:48:29;26.80;99.90
15625;DHT22;7912;51.376;6.126;2023-06-22T08:50:56;26.90;99.90
15625;DHT22;7912;51.376;6.126;2023-06-22T08:53:24;27.00;99.90
15625;DHT22;7912;51.376;6.126;2023-06-22T08:55:51;27.20;99.90
15625;DHT22;7912;51.376;6.126;2023-06-22T08:58:18;27.30;99.60
15625;DHT22;7912;51.376;6.126;2023-06-22T09:00:48;27.40;99.40
15625;DHT22;7912;51.376;6.126;2023-06-22T09:03:15;27.60;99.10
15625;DHT22;7912;51.376;6.126;2023-06-22T09:05:47;27.60;98.80
15625;DHT22;7912;51.376;6.126;2023-06-22T09:08:15;27.70;98.70
15625;DHT22;7912;51.376;6.126;2023-06-22T09:10:42;27.80;98.50
15625;DHT22;7912;51.376;6.126;2023-06-22T09:13:15;27.90;98.40
15625;DHT22;7912;51.376;6.126;2023-06-22T09:15:44;28.00;98.30
15625;DHT22;7912;51.376;6.126;2023-06-22T09:18:13;28.10;98.40
15625;DHT22;7912;51.376;6.126;2023-06-22T09:20:41;28.40;98.20
15625;DHT22;7912;51.376;6.126;2023-06-22T09:23:11;28.60;97.80
15625;DHT22;7912;51.376;6.126;2023-06-22T09:25:40;28.80;97.30
15625;DHT22;7912;51.376;6.126;2023-06-22T09:28:08;29.00;96.70
15625;DHT22;7912;51.376;6.126;2023-06-22T09:30:35;29.10;96.20
15625;DHT22;7912;51.376;6.126;2023-06-22T09:33:03;29.20;95.80
15625;DHT22;7912;51.376;6.126;2023-06-22T09:35:30;29.20;95.60
15625;DHT22;7912;51.376;6.126;2023-06-22T09:38:05;29.20;95.40
15625;DHT22;7912;51.376;6.126;2023-06-22T09:40:35;29.10;95.30
15625;DHT22;7912;51.376;6.126;2023-06-22T09:43:10;29.00;95.20
15625;DHT22;7912;51.376;6.126;2023-06-22T09:45:40;28.90;95.20
15625;DHT22;7912;51.376;6.126;2023-06-22T09:48:11;28.80;95.50
15625;DHT22;7912;51.376;6.126;2023-06-22T09:50:38;28.60;95.60
15625;DHT22;7912;51.376;6.126;2023-06-22T09:53:06;28.50;95.80
15625;DHT22;7912;51.376;6.126;2023-06-22T09:55:33;28.40;96.00
15625;DHT22;7912;51.376;6.126;2023-06-22T09:58:01;28.30;96.20
15625;DHT22;7912;51.376;6.126;2023-06-22T10:00:28;28.20;96.40
15625;DHT22;7912;51.376;6.126;2023-06-22T10:02:56;28.00;96.80
15625;DHT22;7912;51.376;6.126;2023-06-22T10:05:27;27.90;97.20
15625;DHT22;7912;51.376;6.126;2023-06-22T10:07:54;27.90;97.50
15625;DHT22;7912;51.376;6.126;2023-06-22T10:10:22;27.80;97.70
15625;DHT22;7912;51.376;6.126;2023-06-22T10:12:56;27.80;98.00
15625;DHT22;7912;51.376;6.126;2023-06-22T10:15:24;27.80;98.20
15625;DHT22;7912;51.376;6.126;2023-06-22T10:17:54;27.80;98.20
15625;DHT22;7912;51.376;6.126;2023-06-22T10:20:21;27.90;98.20
15625;DHT22;7912;51.376;6.126;2023-06-22T10:22:49;27.90;98.20
15625;DHT22;7912;51.376;6.126;2023-06-22T10:25:17;27.90;98.30
15625;DHT22;7912;51.376;6.126;2023-06-22T10:27:45;27.90;98.20
15625;DHT22;7912;51.376;6.126;2023-06-22T10:30:13;28.00;98.00
15625;DHT22;7912;51.376;6.126;2023-06-22T10:32:41;28.00;97.70
15625;DHT22;7912;51.376;6.126;2023-06-22T10:35:10;28.00;97.70
15625;DHT22;7912;51.376;6.126;2023-06-22T10:37:41;27.90;97.60
15625;DHT22;7912;51.376;6.126;2023-06-22T10:40:14;27.90;97.70
15625;DHT22;7912;51.376;6.126;2023-06-22T10:42:42;27.90;97.90
15625;DHT22;7912;51.376;6.126;2023-06-22T10:45:10;27.90;97.90
15625;DHT22;7912;51.376;6.126;2023-06-22T10:47:38;27.80;97.90
15625;DHT22;7912;51.376;6.126;2023-06-22T10:50:06;27.80;98.00
15625;DHT22;7912;51.376;6.126;2023-06-22T10:52:33;27.80;98.10
15625;DHT22;7912;51.376;6.126;2023-06-22T10:55:01;27.70;98.20
15625;DHT22;7912;51.376;6.126;2023-06-22T10:57:28;27.70;98.40
15625;DHT22;7912;51.376;6.126;2023-06-22T10:59:55;27.70;98.80
15625;DHT22;7912;51.376;6.126;2023-06-22T11:02:23;27.70;99.10
15625;DHT22;7912;51.376;6.126;2023-06-22T11:04:52;27.70;99.40
15625;DHT22;7912;51.376;6.126;2023-06-22T11:07:20;27.70;99.90
15625;DHT22;7912;51.376;6.126;2023-06-22T11:09:47;27.60;99.90
15625;DHT22;7912;51.376;6.126;2023-06-22T11:12:14;27.50;99.90
15625;DHT22;7912;51.376;6.126;2023-06-22T11:14:44;27.40;99.90
15625;DHT22;7912;51.376;6.126;2023-06-22T11:17:11;27.30;99.90
15625;DHT22;7912;51.376;6.126;2023-06-22T11:19:39;27.20;99.90
15625;DHT22;7912;51.376;6.126;2023-06-22T11:22:06;27.10;99.90
15625;DHT22;7912;51.376;6.126;2023-06-22T11:24:33;27.00;99.90
15625;DHT22;7912;51.376;6.126;2023-06-22T11:27:00;26.90;99.90
15625;DHT22;7912;51.376;6.126;2023-06-22T11:32:51;26.80;99.90
15625;DHT22;7912;51.376;6.126;2023-06-22T11:35:19;26.80;99.90
15625;DHT22;7912;51.376;6.126;2023-06-22T11:37:52;26.70;99.90
15625;DHT22;7912;51.376;6.126;2023-06-22T11:40:20;26.70;99.90
15625;DHT22;7912;51.376;6.126;2023-06-22T11:42:47;26.60;99.90
15625;DHT22;7912;51.376;6.126;2023-06-22T11:45:14;26.50;99.90
15625;DHT22;7912;51.376;6.126;2023-06-22T11:47:43;26.30;99.90
15625;DHT22;7912;51.376;6.126;2023-06-22T11:50:10;26.20;99.90
15625;DHT22;7912;51.376;6.126;2023-06-22T11:52:38;26.10;99.90
15625;DHT22;7912;51.376;6.126;2023-06-22T11:55:07;26.00;99.90
15625;DHT22;7912;51.376;6.126;2023-06-22T11:57:39;25.90;99.90
15625;DHT22;7912;51.376;6.126;2023-06-22T12:00:21;25.80;99.90
15625;DHT22;7912;51.376;6.126;2023-06-22T12:02:55;25.80;99.90
15625;DHT22;7912;51.376;6.126;2023-06-22T12:05:26;25.80;99.90
15625;DHT22;7912;51.376;6.126;2023-06-22T12:07:54;25.80;99.90
15625;DHT22;7912;51.376;6.126;2023-06-22T12:10:26;25.90;99.90
15625;DHT22;7912;51.376;6.126;2023-06-22T12:12:56;25.90;99.90
15625;DHT22;7912;51.376;6.126;2023-06-22T12:15:27;26.10;99.90
15625;DHT22;7912;51.376;6.126;2023-06-22T12:17:54;26.20;99.90
15625;DHT22;7912;51.376;6.126;2023-06-22T12:20:21;26.30;99.90
15625;DHT22;7912;51.376;6.126;2023-06-22T12:22:52;26.50;99.90
15625;DHT22;7912;51.376;6.126;2023-06-22T12:25:21;26.60;99.90
15625;DHT22;7912;51.376;6.126;2023-06-22T12:27:49;26.70;99.90
15625;DHT22;7912;51.376;6.126;2023-06-22T12:30:16;26.80;99.90
15625;DHT22;7912;51.376;6.126;2023-06-22T12:32:44;26.80;99.90
15625;DHT22;7912;51.376;6.126;2023-06-22T12:35:11;26.90;99.90
15625;DHT22;7912;51.376;6.126;2023-06-22T12:37:44;26.90;99.90
15625;DHT22;7912;51.376;6.126;2023-06-22T12:40:11;26.90;99.90
15625;DHT22;7912;51.376;6.126;2023-06-22T12:42:39;26.90;99.90
15625;DHT22;7912;51.376;6.126;2023-06-22T12:45:07;26.80;99.90
15625;DHT22;7912;51.376;6.126;2023-06-22T12:47:37;26.70;99.90
15625;DHT22;7912;51.376;6.126;2023-06-22T12:50:05;26.70;99.90
15625;DHT22;7912;51.376;6.126;2023-06-22T12:52:33;26.60;99.90
15625;DHT22;7912;51.376;6.126;2023-06-22T12:55:03;26.60;99.90
15625;DHT22;7912;51.376;6.126;2023-06-22T12:57:30;26.50;99.90
15625;DHT22;7912;51.376;6.126;2023-06-22T12:59:59;26.50;99.90
15625;DHT22;7912;51.376;6.126;2023-06-22T13:02:27;26.40;99.90
15625;DHT22;7912;51.376;6.126;2023-06-22T13:04:55;26.40;99.90
15625;DHT22;7912;51.376;6.126;2023-06-22T13:07:25;26.30;99.90
15625;DHT22;7912;51.376;6.126;2023-06-22T13:09:53;26.40;99.90
15625;DHT22;7912;51.376;6.126;2023-06-22T13:12:25;26.30;99.90
15625;DHT22;7912;51.376;6.126;2023-06-22T13:14:52;26.30;99.90
15625;DHT22;7912;51.376;6.126;2023-06-22T13:17:20;26.30;99.90
15625;DHT22;7912;51.376;6.126;2023-06-22T13:19:51;26.30;99.90
15625;DHT22;7912;51.376;6.126;2023-06-22T13:22:34;26.30;99.90
15625;DHT22;7912;51.376;6.126;2023-06-22T13:25:11;26.30;99.90
15625;DHT22;7912;51.376;6.126;2023-06-22T13:27:40;26.30;99.90
15625;DHT22;7912;51.376;6.126;2023-06-22T13:33:16;26.20;99.90
15625;DHT22;7912;51.376;6.126;2023-06-22T13:35:43;26.20;99.90
15625;DHT22;7912;51.376;6.126;2023-06-22T13:38:11;26.20;99.90
15625;DHT22;7912;51.376;6.126;2023-06-22T13:40:38;26.20;99.90
15625;DHT22;7912;51.376;6.126;2023-06-22T13:43:06;26.10;99.90
15625;DHT22;7912;51.376;6.126;2023-06-22T13:45:33;26.10;99.90
15625;DHT22;7912;51.376;6.126;2023-06-22T13:48:01;26.10;99.90
15625;DHT22;7912;51.376;6.126;2023-06-22T13:50:31;26.10;99.90
15625;DHT22;7912;51.376;6.126;2023-06-22T13:52:59;26.00;99.90
15625;DHT22;7912;51.376;6.126;2023-06-22T13:55:49;25.90;99.90
15625;DHT22;7912;51.376;6.126;2023-06-22T13:58:17;25.80;99.90
15625;DHT22;7912;51.376;6.126;2023-06-22T14:00:48;25.80;99.90
15625;DHT22;7912;51.376;6.126;2023-06-22T14:03:16;25.70;99.90
15625;DHT22;7912;51.376;6.126;2023-06-22T14:05:43;25.70;99.90
15625;DHT22;7912;51.376;6.126;2023-06-22T14:08:11;25.70;99.90
15625;DHT22;7912;51.376;6.126;2023-06-22T14:10:59;25.70;99.90
15625;DHT22;7912;51.376;6.126;2023-06-22T14:13:27;25.60;99.90
15625;DHT22;7912;51.376;6.126;2023-06-22T14:15:54;25.60;99.90
15625;DHT22;7912;51.376;6.126;2023-06-22T14:18:21;25.50;99.90
15625;DHT22;7912;51.376;6.126;2023-06-22T14:20:52;25.50;99.90
15625;DHT22;7912;51.376;6.126;2023-06-22T14:23:26;25.50;99.90
15625;DHT22;7912;51.376;6.126;2023-06-22T14:25:54;25.40;99.90
15625;DHT22;7912;51.376;6.126;2023-06-22T14:32:34;25.40;99.90
15625;DHT22;7912;51.376;6.126;2023-06-22T14:35:02;25.30;99.90
15625;DHT22;7912;51.376;6.126;2023-06-22T14:37:33;25.30;99.90
15625;DHT22;7912;51.376;6.126;2023-06-22T14:40:03;25.20;99.90
15625;DHT22;7912;51.376;6.126;2023-06-22T14:42:31;25.20;99.90
15625;DHT22;7912;51.376;6.126;2023-06-22T14:44:58;25.20;99.90
15625;DHT22;7912;51.376;6.126;2023-06-22T14:47:26;25.10;99.90
15625;DHT22;7912;51.376;6.126;2023-06-22T14:49:55;25.10;99.90
15625;DHT22;7912;51.376;6.126;2023-06-22T14:52:22;25.00;99.90
15625;DHT22;7912;51.376;6.126;2023-06-22T14:54:50;25.00;99.90
15625;DHT22;7912;51.376;6.126;2023-06-22T14:57:19;24.90;99.90
15625;DHT22;7912;51.376;6.126;2023-06-22T14:59:47;24.90;99.90
15625;DHT22;7912;51.376;6.126;2023-06-22T15:02:16;24.80;99.90
15625;DHT22;7912;51.376;6.126;2023-06-22T15:04:44;24.80;99.90
15625;DHT22;7912;51.376;6.126;2023-06-22T15:10:10;24.60;99.90
15625;DHT22;7912;51.376;6.126;2023-06-22T15:12:37;24.60;99.90
15625;DHT22;7912;51.376;6.126;2023-06-22T15:15:05;24.50;99.90
15625;DHT22;7912;51.376;6.126;2023-06-22T15:17:33;24.40;99.90
15625;DHT22;7912;51.376;6.126;2023-06-22T15:20:02;24.30;99.90
15625;DHT22;7912;51.376;6.126;2023-06-22T15:22:32;24.20;99.90
15625;DHT22;7912;51.376;6.126;2023-06-22T15:32:24;23.80;99.90
15625;DHT22;7912;51.376;6.126;2023-06-22T15:34:56;23.70;99.90
15625;DHT22;7912;51.376;6.126;2023-06-22T15:37:23;23.50;99.90
15625;DHT22;7912;51.376;6.126;2023-06-22T15:39:52;23.40;99.90
15625;DHT22;7912;51.376;6.126;2023-06-22T15:42:19;23.30;99.90
15625;DHT22;7912;51.376;6.126;2023-06-22T15:44:47;23.20;99.90
15625;DHT22;7912;51.376;6.126;2023-06-22T15:47:14;23.00;99.90
15625;DHT22;7912;51.376;6.126;2023-06-22T15:49:43;23.00;99.90
15625;DHT22;7912;51.376;6.126;2023-06-22T15:52:11;22.90;99.90
15625;DHT22;7912;51.376;6.126;2023-06-22T15:57:47;22.80;99.90
15625;DHT22;7912;51.376;6.126;2023-06-22T16:00:16;22.70;99.90
15625;DHT22;7912;51.376;6.126;2023-06-22T16:02:46;22.70;99.90
15625;DHT22;7912;51.376;6.126;2023-06-22T16:05:14;22.60;99.90
15625;DHT22;7912;51.376;6.126;2023-06-22T16:07:42;22.60;99.90
15625;DHT22;7912;51.376;6.126;2023-06-22T16:10:11;22.50;99.90
15625;DHT22;7912;51.376;6.126;2023-06-22T16:12:42;22.40;99.90
15625;DHT22;7912;51.376;6.126;2023-06-22T16:15:11;22.40;99.90
15625;DHT22;7912;51.376;6.126;2023-06-22T16:17:39;22.30;99.90
15625;DHT22;7912;51.376;6.126;2023-06-22T16:20:08;22.30;99.90
15625;DHT22;7912;51.376;6.126;2023-06-22T16:22:40;22.20;99.90
15625;DHT22;7912;51.376;6.126;2023-06-22T16:25:08;22.20;99.90
15625;DHT22;7912;51.376;6.126;2023-06-22T16:27:36;22.20;99.90
15625;DHT22;7912;51.376;6.126;2023-06-22T16:30:06;22.10;99.90
15625;DHT22;7912;51.376;6.126;2023-06-22T16:32:36;22.10;99.90
15625;DHT22;7912;51.376;6.126;2023-06-22T16:35:04;22.10;99.90
15625;DHT22;7912;51.376;6.126;2023-06-22T16:37:32;22.00;99.90
15625;DHT22;7912;51.376;6.126;2023-06-22T16:39:59;22.00;99.90
15625;DHT22;7912;51.376;6.126;2023-06-22T16:42:27;22.00;99.90
15625;DHT22;7912;51.376;6.126;2023-06-22T16:44:54;22.00;99.90
15625;DHT22;7912;51.376;6.126;2023-06-22T16:47:21;22.00;99.90
15625;DHT22;7912;51.376;6.126;2023-06-22T16:49:49;21.90;99.90
15625;DHT22;7912;51.376;6.126;2023-06-22T16:52:18;21.90;99.90
15625;DHT22;7912;51.376;6.126;2023-06-22T16:54:46;21.80;99.90
15625;DHT22;7912;51.376;6.126;2023-06-22T16:57:26;21.80;99.90
15625;DHT22;7912;51.376;6.126;2023-06-22T16:59:54;21.70;99.90
15625;DHT22;7912;51.376;6.126;2023-06-22T17:02:24;21.60;99.90
15625;DHT22;7912;51.376;6.126;2023-06-22T17:04:53;21.50;99.90
15625;DHT22;7912;51.376;6.126;2023-06-22T17:07:25;21.50;99.90
15625;DHT22;7912;51.376;6.126;2023-06-22T17:09:55;21.40;99.90
15625;DHT22;7912;51.376;6.126;2023-06-22T17:12:25;21.30;99.90
15625;DHT22;7912;51.376;6.126;2023-06-22T17:14:55;21.30;99.90
15625;DHT22;7912;51.376;6.126;2023-06-22T17:17:25;21.20;99.90
15625;DHT22;7912;51.376;6.126;2023-06-22T17:19:56;21.20;99.90
15625;DHT22;7912;51.376;6.126;2023-06-22T17:22:23;21.10;99.90
15625;DHT22;7912;51.376;6.126;2023-06-22T17:24:51;21.10;99.90
15625;DHT22;7912;51.376;6.126;2023-06-22T17:27:29;21.10;99.90
15625;DHT22;7912;51.376;6.126;2023-06-22T17:32:37;21.10;99.90
15625;DHT22;7912;51.376;6.126;2023-06-22T17:35:05;21.00;99.90
15625;DHT22;7912;51.376;6.126;2023-06-22T17:37:46;21.10;99.90
15625;DHT22;7912;51.376;6.126;2023-06-22T17:40:20;21.10;99.90
15625;DHT22;7912;51.376;6.126;2023-06-22T17:42:50;21.10;99.90
15625;DHT22;7912;51.376;6.126;2023-06-22T17:45:20;21.00;99.90
15625;DHT22;7912;51.376;6.126;2023-06-22T17:47:52;21.00;99.90
15625;DHT22;7912;51.376;6.126;2023-06-22T17:50:25;21.00;99.90
15625;DHT22;7912;51.376;6.126;2023-06-22T17:52:53;21.00;99.90
15625;DHT22;7912;51.376;6.126;2023-06-22T17:55:23;20.90;99.90
15625;DHT22;7912;51.376;6.126;2023-06-22T17:57:56;20.90;99.90
15625;DHT22;7912;51.376;6.126;2023-06-22T18:00:25;20.90;99.90
15625;DHT22;7912;51.376;6.126;2023-06-22T18:02:54;20.90;99.90
15625;DHT22;7912;51.376;6.126;2023-06-22T18:05:33;20.90;99.90
15625;DHT22;7912;51.376;6.126;2023-06-22T18:08:06;20.90;99.90
15625;DHT22;7912;51.376;6.126;2023-06-22T18:10:36;20.90;99.90
15625;DHT22;7912;51.376;6.126;2023-06-22T18:13:07;20.90;99.90
15625;DHT22;7912;51.376;6.126;2023-06-22T18:15:37;20.90;99.90
15625;DHT22;7912;51.376;6.126;2023-06-22T18:18:05;20.80;99.90
15625;DHT22;7912;51.376;6.126;2023-06-22T18:20:36;20.90;99.90
15625;DHT22;7912;51.376;6.126;2023-06-22T18:23:09;20.80;99.90
15625;DHT22;7912;51.376;6.126;2023-06-22T18:25:37;20.80;99.90
15625;DHT22;7912;51.376;6.126;2023-06-22T18:28:06;20.80;99.90
15625;DHT22;7912;51.376;6.126;2023-06-22T18:30:34;20.80;99.90
15625;DHT22;7912;51.376;6.126;2023-06-22T18:33:02;20.70;99.90
15625;DHT22;7912;51.376;6.126;2023-06-22T18:35:30;20.70;99.90
15625;DHT22;7912;51.376;6.126;2023-06-22T18:37:59;20.70;99.90
15625;DHT22;7912;51.376;6.126;2023-06-22T18:40:27;20.70;99.90
15625;DHT22;7912;51.376;6.126;2023-06-22T18:42:59;20.70;99.90
15625;DHT22;7912;51.376;6.126;2023-06-22T18:45:29;20.70;99.90
15625;DHT22;7912;51.376;6.126;2023-06-22T18:48:00;20.70;99.90
15625;DHT22;7912;51.376;6.126;2023-06-22T18:50:43;20.70;99.90
15625;DHT22;7912;51.376;6.126;2023-06-22T18:53:24;20.70;99.90
15625;DHT22;7912;51.376;6.126;2023-06-22T18:56:20;20.70;99.90
15625;DHT22;7912;51.376;6.126;2023-06-22T18:59:11;20.70;99.90
15625;DHT22;7912;51.376;6.126;2023-06-22T19:01:41;20.70;99.90
15625;DHT22;7912;51.376;6.126;2023-06-22T19:04:15;20.70;99.90
15625;DHT22;7912;51.376;6.126;2023-06-22T19:06:55;20.70;99.90
15625;DHT22;7912;51.376;6.126;2023-06-22T19:09:25;20.80;99.90
15625;DHT22;7912;51.376;6.126;2023-06-22T19:12:16;20.80;99.90
15625;DHT22;7912;51.376;6.126;2023-06-22T19:15:00;20.80;99.90
15625;DHT22;7912;51.376;6.126;2023-06-22T19:17:46;20.90;99.90
15625;DHT22;7912;51.376;6.126;2023-06-22T19:20:20;20.90;99.90
15625;DHT22;7912;51.376;6.126;2023-06-22T19:22:56;21.00;99.90
15625;DHT22;7912;51.376;6.126;2023-06-22T19:25:29;21.00;99.90
15625;DHT22;7912;51.376;6.126;2023-06-22T19:28:01;21.00;99.90
15625;DHT22;7912;51.376;6.126;2023-06-22T19:30:40;21.10;99.90
15625;DHT22;7912;51.376;6.126;2023-06-22T19:33:11;21.10;99.90
15625;DHT22;7912;51.376;6.126;2023-06-22T19:35:42;21.10;99.90
15625;DHT22;7912;51.376;6.126;2023-06-22T19:38:09;21.10;99.90
15625;DHT22;7912;51.376;6.126;2023-06-22T19:40:39;21.20;99.90
15625;DHT22;7912;51.376;6.126;2023-06-22T19:43:07;21.20;99.90
15625;DHT22;7912;51.376;6.126;2023-06-22T19:45:39;21.20;99.90
15625;DHT22;7912;51.376;6.126;2023-06-22T19:48:11;21.30;99.90
15625;DHT22;7912;51.376;6.126;2023-06-22T19:50:41;21.30;99.90
15625;DHT22;7912;51.376;6.126;2023-06-22T19:53:14;21.30;99.90
15625;DHT22;7912;51.376;6.126;2023-06-22T19:55:50;21.30;99.90
15625;DHT22;7912;51.376;6.126;2023-06-22T19:58:36;21.30;99.90
15625;DHT22;7912;51.376;6.126;2023-06-22T20:01:04;21.30;99.90
15625;DHT22;7912;51.376;6.126;2023-06-22T20:03:35;21.30;99.90
15625;DHT22;7912;51.376;6.126;2023-06-22T20:06:11;21.30;99.90
15625;DHT22;7912;51.376;6.126;2023-06-22T20:08:44;21.30;99.90
15625;DHT22;7912;51.376;6.126;2023-06-22T20:11:29;21.30;99.90
15625;DHT22;7912;51.376;6.126;2023-06-22T20:14:00;21.30;99.90